.
WxDataArchive / Data Records for 2011-10-06
2011-10-05 October 2011 2011-10-07

Data Records for Thursday, 06 October 2011

Time	Temp	Chill	HIndex	Humid	Dewpt	 Wind 	HiWind	WindDir	Rain 	Barom 
-----	----	-----	------	-----	-----	------	------	-------	-----	----- 
00:00	53.9	53.9	53.9	88	50.4	0	0	---	0.00	30.237 
00:05	53.9	53.9	53.9	87	50.1	0	0	---	0.00	30.237 
00:10	53.9	53.9	53.9	86	49.8	0	0	---	0.00	30.237 
00:15	53.9	53.9	53.9	86	49.8	0	0	---	0.00	30.234 
00:20	53.8	53.8	53.8	85	49.4	0	0	---	0.00	30.234 
00:25	53.8	53.8	53.8	85	49.4	0	0	---	0.00	30.234 
00:30	53.6	53.6	53.6	84	48.9	0	0	---	0.00	30.235 
00:35	53.5	53.5	53.5	84	48.8	0	0	---	0.00	30.235 
00:40	53.5	53.5	53.5	84	48.8	0	0	---	0.00	30.235 
00:45	53.5	53.5	53.5	84	48.8	0	0	---	0.00	30.234 
00:50	53.5	53.5	53.5	84	48.8	0	0	---	0.00	30.234 
00:55	53.5	53.5	53.5	84	48.8	0	0	---	0.00	30.234 
01:00	53.5	53.5	53.5	84	48.8	0	0	---	0.00	30.237 
01:05	53.3	53.3	53.3	84	48.6	0	0	---	0.00	30.237 
01:10	53.3	53.3	53.3	84	48.6	0	0	---	0.00	30.237 
01:15	53.3	53.3	53.3	84	48.6	0	0	---	0.00	30.243 
01:20	53.2	53.2	53.2	85	48.8	0	0	---	0.00	30.243 
01:25	53.2	53.2	53.2	85	48.8	0	0	---	0.00	30.243 
01:30	53.1	53.1	53.1	85	48.7	0	0	---	0.00	30.245 
01:35	52.9	52.9	52.9	85	48.5	0	0	---	0.00	30.245 
01:40	52.8	52.8	52.8	85	48.4	0	0	---	0.00	30.245 
01:45	52.6	52.6	52.6	86	48.5	0	0	---	0.00	30.243 
01:50	52.3	52.3	52.3	86	48.2	0	0	---	0.00	30.243 
01:55	52.2	52.2	52.2	87	48.4	0	0	---	0.00	30.243 
02:00	52.2	52.2	52.2	88	48.8	0	0	---	0.00	30.244 
02:05	52.3	52.3	52.3	88	48.9	0	0	---	0.00	30.244 
02:10	52.5	52.5	52.5	88	49.0	0	0	---	0.00	30.244 
02:15	52.3	52.3	52.3	88	48.9	0	0	---	0.00	30.246 
02:20	52.2	52.2	52.2	88	48.8	0	0	---	0.00	30.246 
02:25	52.2	52.2	52.2	88	48.8	0	0	---	0.00	30.246 
02:30	52.0	52.0	52.0	88	48.6	0	0	---	0.00	30.248 
02:35	51.9	51.9	51.9	88	48.5	0	0	---	0.00	30.248 
02:40	51.7	51.7	51.7	89	48.6	0	0	---	0.00	30.248 
02:45	51.7	51.7	51.7	89	48.6	0	0	---	0.00	30.250 
02:50	51.6	51.6	51.6	89	48.5	0	0	---	0.00	30.250 
02:55	51.4	51.4	51.4	89	48.3	0	0	---	0.00	30.250 
03:00	51.4	51.4	51.4	90	48.6	0	0	---	0.00	30.249 
03:05	51.3	51.3	51.3	90	48.5	0	0	---	0.00	30.249 
03:10	51.1	51.1	51.1	90	48.3	0	0	---	0.00	30.249 
03:15	51.0	51.0	51.0	90	48.2	0	0	---	0.00	30.249 
03:20	50.8	50.8	50.8	90	48.0	0	0	---	0.00	30.249 
03:25	50.5	50.5	50.5	90	47.7	0	0	---	0.00	30.249 
03:30	50.5	50.5	50.5	91	48.0	0	0	---	0.00	30.249 
03:35	50.4	50.4	50.4	91	47.9	0	0	---	0.00	30.249 
03:40	50.2	50.2	50.2	91	47.7	0	0	---	0.00	30.249 
03:45	50.2	50.2	50.2	91	47.7	0	0	---	0.00	30.248 
03:50	50.1	50.1	50.1	91	47.6	0	0	---	0.00	30.248 
03:55	49.9	49.9	49.9	91	47.4	0	0	---	0.00	30.248 
04:00	49.9	49.9	49.9	92	47.7	0	0	---	0.00	30.250 
04:05	49.8	49.8	49.8	92	47.6	0	0	---	0.00	30.250 
04:10	49.8	49.8	49.8	92	47.6	0	0	---	0.00	30.250 
04:15	49.6	49.6	49.6	92	47.4	0	0	---	0.00	30.253 
04:20	49.5	49.5	49.5	92	47.3	0	0	---	0.00	30.253 
04:25	49.4	49.4	49.4	92	47.2	0	0	---	0.00	30.253 
04:30	49.2	49.2	49.2	92	47.0	0	0	---	0.00	30.253 
04:35	49.1	49.1	49.1	92	46.9	0	0	---	0.00	30.253 
04:40	48.9	48.9	48.9	92	46.7	0	0	---	0.00	30.253 
04:45	48.9	48.9	48.9	93	47.0	0	0	---	0.00	30.254 
04:50	48.8	48.8	48.8	93	46.9	0	0	---	0.00	30.254 
04:55	48.8	48.8	48.8	93	46.9	0	0	---	0.00	30.254 
05:00	48.8	48.8	48.8	93	46.9	0	0	---	0.00	30.254 
05:05	48.6	48.6	48.6	93	46.7	0	0	---	0.00	30.254 
05:10	48.5	48.5	48.5	93	46.6	0	0	---	0.00	30.254 
05:15	48.5	48.5	48.5	93	46.6	0	0	---	0.00	30.258 
05:20	48.3	48.3	48.3	93	46.4	0	0	---	0.00	30.258 
05:25	48.3	48.3	48.3	93	46.4	0	0	---	0.00	30.258 
05:30	48.2	48.2	48.2	93	46.3	0	0	---	0.00	30.257 
05:35	48.2	48.2	48.2	93	46.3	0	0	---	0.00	30.257 
05:40	48.0	48.0	48.0	93	46.1	0	0	---	0.00	30.257 
05:45	48.0	48.0	48.0	93	46.1	0	0	---	0.00	30.261 
05:50	47.9	47.9	47.9	94	46.3	0	0	---	0.00	30.261 
05:55	47.7	47.7	47.7	94	46.1	0	0	---	0.00	30.261 
06:00	47.7	47.7	47.7	94	46.1	0	0	---	0.00	30.261 
06:05	47.7	47.7	47.7	94	46.1	0	0	---	0.00	30.261 
06:10	47.6	47.6	47.6	94	46.0	0	0	---	0.00	30.261 
06:15	47.6	47.6	47.6	94	46.0	0	0	---	0.00	30.271 
06:20	47.4	47.4	47.4	94	45.8	0	0	---	0.00	30.271 
06:25	47.4	47.4	47.4	94	45.8	0	0	---	0.00	30.271 
06:30	47.3	47.3	47.3	94	45.7	0	0	---	0.00	30.273 
06:35	47.1	47.1	47.1	94	45.5	0	0	---	0.00	30.273 
06:40	47.1	47.1	47.1	94	45.5	0	0	---	0.00	30.273 
06:45	47.0	47.0	47.0	94	45.4	0	0	---	0.00	30.275 
06:50	47.0	47.0	47.0	94	45.4	0	0	---	0.00	30.275 
06:55	47.1	47.1	47.1	94	45.5	0	0	---	0.00	30.275 
07:00	47.1	47.1	47.1	94	45.5	0	0	---	0.00	30.279 
07:05	47.1	47.1	47.1	94	45.5	0	0	---	0.00	30.279 
07:10	47.0	47.0	47.0	94	45.4	0	0	---	0.00	30.279 
07:15	47.0	47.0	47.0	94	45.4	0	0	---	0.00	30.289 
07:20	47.0	47.0	47.0	94	45.4	0	0	---	0.00	30.289 
07:25	47.0	47.0	47.0	94	45.4	0	0	---	0.00	30.289 
07:30	46.8	46.8	46.8	94	45.2	0	0	---	0.00	30.291 
07:35	46.8	46.8	46.8	95	45.4	0	0	---	0.00	30.291 
07:40	47.0	47.0	47.0	95	45.6	0	0	---	0.00	30.291 
07:45	47.0	47.0	47.0	95	45.6	0	0	---	0.00	30.294 
07:50	47.1	47.1	47.1	95	45.7	0	0	---	0.00	30.294 
07:55	47.1	47.1	47.1	95	45.7	0	0	---	0.00	30.294 
08:00	47.1	47.1	47.1	95	45.7	0	0	---	0.00	30.296 
08:05	47.1	47.1	47.1	95	45.7	0	0	---	0.00	30.296 
08:10	47.1	47.1	47.1	95	45.7	0	0	---	0.00	30.296 
08:15	47.3	47.3	47.3	95	45.9	0	0	---	0.00	30.304 
08:20	47.4	47.4	47.4	95	46.0	0	0	---	0.00	30.304 
08:25	47.7	47.7	47.7	95	46.3	0	0	---	0.00	30.304 
08:30	48.2	48.2	48.2	96	47.1	0	0	---	0.00	30.305 
08:35	48.5	48.5	48.5	95	47.1	0	0	---	0.00	30.305 
08:40	48.8	48.8	48.8	96	47.7	0	0	---	0.00	30.305 
08:45	49.1	49.1	49.1	96	48.0	0	0	---	0.00	30.309 
08:50	49.5	49.5	49.5	96	48.4	0	0	---	0.00	30.309 
08:55	49.9	49.9	49.9	96	48.8	0	1	90	0.00	30.309 
09:00	50.5	50.5	50.5	96	49.4	0	2	90	0.00	30.308 
09:05	51.0	51.0	51.0	96	49.9	0	2	90	0.00	30.308 
09:10	51.4	51.4	51.4	96	50.3	1	4	90	0.00	30.308 
09:15	51.9	51.9	51.9	95	50.5	0	1	90	0.00	30.313 
09:20	52.2	52.2	52.2	95	50.8	0	0	---	0.00	30.313 
09:25	52.6	52.6	52.6	95	51.2	0	1	90	0.00	30.313 
09:30	53.1	53.1	53.1	94	51.4	0	1	90	0.00	30.310 
09:35	53.5	53.5	53.5	93	51.5	0	1	90	0.00	30.310 
09:40	54.1	54.1	54.1	92	51.8	0	2	90	0.00	30.310 
09:45	54.5	54.5	54.5	92	52.2	0	0	---	0.00	30.311 
09:50	55.0	55.0	55.0	91	52.4	0	1	90	0.00	30.311 
09:55	55.6	55.6	55.6	89	52.4	0	2	90	0.00	30.311 
10:00	56.0	56.0	56.0	88	52.5	0	1	90	0.00	30.312 
10:05	56.6	56.6	56.6	87	52.8	0	1	90	0.00	30.312 
10:10	57.5	57.5	57.5	84	52.7	0	2	90	0.00	30.312 
10:15	58.4	58.4	58.4	81	52.6	0	1	90	0.00	30.315 
10:20	59.5	59.5	59.5	80	53.3	0	0	---	0.00	30.315 
10:25	60.5	60.5	60.5	75	52.5	0	1	90	0.00	30.315 
10:30	61.8	61.8	61.8	73	53.0	0	1	90	0.00	30.318 
10:35	62.7	62.7	62.7	71	53.2	0	2	90	0.00	30.318 
10:40	63.5	63.5	63.5	70	53.5	0	2	90	0.00	30.318 
10:45	64.2	64.2	64.2	68	53.4	0	2	90	0.00	30.320 
10:50	65.2	65.2	65.2	66	53.5	0	1	90	0.00	30.320 
10:55	66.3	66.3	66.3	65	54.2	0	0	---	0.00	30.320 
11:00	67.3	67.3	67.3	62	53.8	0	1	90	0.00	30.319 
11:05	68.1	68.1	68.1	60	53.7	0	2	90	0.00	30.319 
11:10	68.4	68.4	68.4	59	53.5	0	2	90	0.00	30.319 
11:15	68.9	68.9	68.9	59	54.0	0	1	90	0.00	30.323 
11:20	68.9	68.9	68.9	61	54.9	0	1	90	0.00	30.323 
11:25	69.1	69.1	69.1	59	54.2	0	1	90	0.00	30.323 
11:30	69.8	69.8	69.8	59	54.8	0	0	---	0.00	30.318 
11:35	70.3	70.3	70.3	58	54.8	0	0	---	0.00	30.318 
11:40	70.9	70.9	70.9	55	53.9	0	1	90	0.00	30.318 
11:45	71.5	71.5	71.5	54	54.0	0	1	90	0.00	30.315 
11:50	72.3	72.3	72.3	54	54.7	0	1	90	0.00	30.315 
11:55	73.0	73.0	73.0	51	53.8	0	1	90	0.00	30.315 
12:00	73.5	73.5	73.5	53	55.3	0	2	90	0.00	30.312 
12:05	73.7	73.7	73.7	51	54.4	0	1	90	0.00	30.312 
12:10	74.0	74.0	74.0	52	55.2	0	1	90	0.00	30.312 
12:15	74.0	74.0	74.0	50	54.2	0	1	90	0.00	30.308 
12:20	74.4	74.4	74.4	49	54.0	0	2	90	0.00	30.308 
12:25	74.6	74.6	74.6	50	54.7	1	2	90	0.00	30.308 
12:30	74.7	74.7	74.7	48	53.7	1	3	90	0.00	30.303 
12:35	74.9	74.9	74.9	49	54.4	0	1	90	0.00	30.303 
12:40	75.3	75.3	77.7	50	55.4	0	2	112	0.00	30.303 
12:45	75.4	75.4	77.8	46	53.2	0	1	112	0.00	30.297 
12:50	76.0	76.0	78.0	48	54.9	0	0	---	0.00	30.297 
12:55	76.3	76.3	78.2	50	56.3	0	2	112	0.00	30.297 
13:00	76.1	76.1	78.1	48	55.0	1	2	112	0.00	30.294 
13:05	76.0	76.0	78.0	47	54.3	0	1	112	0.00	30.294 
13:10	76.1	76.1	78.1	48	55.0	0	1	112	0.00	30.294 
13:15	76.0	76.0	78.0	46	53.7	1	4	112	0.00	30.293 
13:20	76.0	76.0	78.1	53	57.6	0	1	112	0.00	30.293 
13:25	76.3	76.3	78.1	45	53.4	0	2	112	0.00	30.293 
13:30	76.5	76.5	78.3	47	54.7	0	2	112	0.00	30.286 
13:35	76.7	76.7	78.4	48	55.5	0	2	112	0.00	30.286 
13:40	76.8	76.8	78.3	45	53.8	0	2	112	0.00	30.286 
13:45	77.0	77.0	78.4	45	54.0	0	1	112	0.00	30.281 
13:50	77.0	77.0	78.4	43	52.8	0	2	112	0.00	30.281 
13:55	77.0	77.0	78.4	43	52.8	0	3	112	0.00	30.281 
14:00	77.0	77.0	78.3	42	52.1	0	1	112	0.00	30.279 
14:05	77.0	77.0	78.3	42	52.1	0	1	112	0.00	30.279 
14:10	77.0	77.0	78.3	41	51.5	0	2	112	0.00	30.279 
14:15	77.0	77.0	78.2	40	50.8	1	3	112	0.00	30.273 
14:20	77.2	77.2	78.3	40	51.0	0	2	112	0.00	30.273 
14:25	77.2	77.2	78.4	42	52.3	0	3	112	0.00	30.273 
14:30	77.4	77.4	78.4	39	50.5	0	1	112	0.00	30.268 
14:35	77.6	77.6	78.5	39	50.7	0	2	112	0.00	30.268 
14:40	77.9	77.9	78.6	39	50.9	0	2	112	0.00	30.268 
14:45	78.1	78.1	78.8	40	51.8	0	2	112	0.00	30.265 
14:50	78.3	78.3	78.7	37	49.9	0	2	112	0.00	30.265 
14:55	78.3	78.3	78.7	37	49.9	0	2	112	0.00	30.265 
15:00	78.5	78.5	78.9	39	51.5	0	3	112	0.00	30.261 
15:05	78.3	78.3	78.7	37	49.9	0	2	112	0.00	30.261 
15:10	78.3	78.3	78.8	39	51.3	1	3	112	0.00	30.261 
15:15	78.1	78.1	78.7	38	50.4	0	2	112	0.00	30.262 
15:20	78.1	78.1	78.7	38	50.4	0	2	180	0.00	30.262 
15:25	78.3	78.3	78.7	37	49.9	1	3	180	0.00	30.262 
15:30	78.3	78.3	78.8	38	50.6	0	2	112	0.00	30.255 
15:35	78.3	78.3	78.7	37	49.9	1	3	112	0.00	30.255 
15:40	78.3	78.3	78.8	38	50.6	0	1	112	0.00	30.255 
15:45	78.6	78.6	78.9	38	50.8	0	2	158	0.00	30.255 
15:50	79.2	79.2	79.4	40	52.8	0	1	158	0.00	30.255 
15:55	79.6	79.6	79.4	37	51.0	0	3	158	0.00	30.255 
16:00	79.4	79.4	79.5	39	52.3	1	4	90	0.00	30.252 
16:05	79.0	79.0	79.1	37	50.5	1	4	68	0.00	30.252 
16:10	78.6	78.6	79.0	39	51.5	1	3	68	0.00	30.252 
16:15	78.5	78.5	78.9	39	51.5	0	2	68	0.00	30.255 
16:20	78.3	78.3	78.9	40	52.0	1	3	68	0.00	30.255 
16:25	78.3	78.3	78.7	37	49.9	1	4	68	0.00	30.255 
16:30	78.1	78.1	78.5	36	48.9	1	2	68	0.00	30.257 
16:35	78.1	78.1	78.7	39	51.1	0	1	68	0.00	30.257 
16:40	78.1	78.1	78.7	39	51.1	0	0	---	0.00	30.257 
16:45	78.1	78.1	78.9	42	53.1	0	1	68	0.00	30.255 
16:50	77.9	77.9	78.4	36	48.8	0	2	68	0.00	30.255 
16:55	78.1	78.1	78.6	37	49.7	0	2	68	0.00	30.255 
17:00	78.1	78.1	78.5	35	48.2	0	1	68	0.00	30.256 
17:05	78.1	78.1	78.5	36	48.9	0	2	68	0.00	30.256 
17:10	78.1	78.1	78.7	38	50.4	0	0	---	0.00	30.256 
17:15	77.9	77.9	78.6	38	50.2	0	1	68	0.00	30.254 
17:20	77.9	77.9	78.4	36	48.8	0	2	68	0.00	30.254 
17:25	78.1	78.1	78.5	36	48.9	0	1	68	0.00	30.254 
17:30	78.1	78.1	78.6	37	49.7	0	3	68	0.00	30.256 
17:35	77.9	77.9	78.4	36	48.8	0	2	68	0.00	30.256 
17:40	77.9	77.9	78.4	36	48.8	0	2	68	0.00	30.256 
17:45	77.7	77.7	78.3	35	47.8	0	2	68	0.00	30.254 
17:50	77.7	77.7	78.4	37	49.3	0	1	68	0.00	30.254 
17:55	77.7	77.7	78.3	36	48.6	0	1	68	0.00	30.254 
18:00	77.6	77.6	78.4	37	49.2	0	1	68	0.00	30.254 
18:05	77.4	77.4	78.3	37	49.1	0	1	68	0.00	30.254 
18:10	77.2	77.2	78.2	38	49.6	0	0	---	0.00	30.254 
18:15	77.0	77.0	78.1	37	48.7	0	1	68	0.00	30.258 
18:20	76.8	76.8	78.0	38	49.2	0	0	---	0.00	30.258 
18:25	76.7	76.7	78.1	39	49.9	0	1	68	0.00	30.258 
18:30	76.5	76.5	78.1	41	51.0	0	0	---	0.00	30.261 
18:35	76.0	76.0	77.9	43	51.9	0	0	---	0.00	30.261 
18:40	75.4	75.4	77.7	44	52.0	0	0	---	0.00	30.261 
18:45	74.9	74.9	74.9	45	52.1	0	0	---	0.00	30.262 
18:50	74.2	74.2	74.2	48	53.2	0	0	---	0.00	30.262 
18:55	73.5	73.5	73.5	49	53.2	0	0	---	0.00	30.262 
19:00	72.8	72.8	72.8	50	53.1	0	0	---	0.00	30.262 
19:05	72.1	72.1	72.1	52	53.5	0	0	---	0.00	30.262 
19:10	71.3	71.3	71.3	52	52.8	0	0	---	0.00	30.262 
19:15	70.8	70.8	70.8	53	52.8	0	0	---	0.00	30.266 
19:20	70.3	70.3	70.3	53	52.3	0	0	---	0.00	30.266 
19:25	69.6	69.6	69.6	55	52.7	0	0	---	0.00	30.266 
19:30	68.9	68.9	68.9	56	52.5	0	0	---	0.00	30.271 
19:35	68.4	68.4	68.4	56	52.1	0	0	---	0.00	30.271 
19:40	67.8	67.8	67.8	58	52.5	0	0	---	0.00	30.271 
19:45	67.3	67.3	67.3	59	52.5	0	0	---	0.00	30.275 
19:50	66.8	66.8	66.8	60	52.5	0	0	---	0.00	30.275 
19:55	66.1	66.1	66.1	60	51.8	0	0	---	0.00	30.275 
20:00	65.8	65.8	65.8	62	52.4	0	0	---	0.00	30.278 
20:05	65.3	65.3	65.3	63	52.4	0	0	---	0.00	30.278 
20:10	64.7	64.7	64.7	66	53.1	0	0	---	0.00	30.278 
20:15	64.3	64.3	64.3	67	53.1	0	0	---	0.00	30.278 
20:20	63.9	63.9	63.9	67	52.7	0	0	---	0.00	30.278 
20:25	63.5	63.5	63.5	67	52.3	0	0	---	0.00	30.278 
20:30	63.2	63.2	63.2	68	52.5	0	0	---	0.00	30.281 
20:35	62.9	62.9	62.9	68	52.2	0	0	---	0.00	30.281 
20:40	62.6	62.6	62.6	69	52.3	0	0	---	0.00	30.281 
20:45	62.4	62.4	62.4	70	52.5	0	0	---	0.00	30.289 
20:50	62.1	62.1	62.1	70	52.2	0	0	---	0.00	30.289 
20:55	61.8	61.8	61.8	72	52.7	0	0	---	0.00	30.289 
21:00	61.5	61.5	61.5	73	52.8	0	0	---	0.00	30.290 
21:05	61.3	61.3	61.3	73	52.6	0	0	---	0.00	30.290 
21:10	61.0	61.0	61.0	74	52.6	0	0	---	0.00	30.290 
21:15	60.9	60.9	60.9	75	52.9	0	0	---	0.00	30.288 
21:20	60.5	60.5	60.5	75	52.5	0	0	---	0.00	30.288 
21:25	60.4	60.4	60.4	76	52.8	0	0	---	0.00	30.288 
21:30	60.2	60.2	60.2	76	52.6	0	0	---	0.00	30.290 
21:35	59.9	59.9	59.9	77	52.7	0	0	---	0.00	30.290 
21:40	59.6	59.6	59.6	77	52.4	0	0	---	0.00	30.290 
21:45	59.3	59.3	59.3	78	52.4	0	0	---	0.00	30.293 
21:50	59.2	59.2	59.2	79	52.7	0	0	---	0.00	30.293 
21:55	58.9	58.9	58.9	80	52.7	0	0	---	0.00	30.293 
22:00	58.6	58.6	58.6	81	52.8	0	0	---	0.00	30.293 
22:05	58.4	58.4	58.4	81	52.6	0	0	---	0.00	30.293 
22:10	58.1	58.1	58.1	82	52.6	0	0	---	0.00	30.293 
22:15	58.0	58.0	58.0	83	52.9	0	0	---	0.00	30.285 
22:20	57.8	57.8	57.8	83	52.7	0	0	---	0.00	30.285 
22:25	57.6	57.6	57.6	83	52.5	0	0	---	0.00	30.285 
22:30	57.3	57.3	57.3	84	52.5	0	0	---	0.00	30.286 
22:35	57.2	57.2	57.2	84	52.4	0	0	---	0.00	30.286 
22:40	57.0	57.0	57.0	84	52.2	0	0	---	0.00	30.286 
22:45	56.9	56.9	56.9	84	52.1	0	0	---	0.00	30.288 
22:50	56.7	56.7	56.7	84	51.9	0	0	---	0.00	30.288 
22:55	56.6	56.6	56.6	84	51.8	0	0	---	0.00	30.288 
23:00	56.5	56.5	56.5	84	51.7	0	0	---	0.00	30.286 
23:05	56.5	56.5	56.5	84	51.7	0	0	---	0.00	30.286 
23:10	56.3	56.3	56.3	84	51.5	0	0	---	0.00	30.286 
23:15	56.3	56.3	56.3	84	51.5	0	0	---	0.00	30.283 
23:20	56.2	56.2	56.2	84	51.4	0	0	---	0.00	30.283 
23:25	56.0	56.0	56.0	85	51.6	0	0	---	0.00	30.283 
23:30	55.7	55.7	55.7	85	51.3	0	0	---	0.00	30.284 
23:35	55.6	55.6	55.6	85	51.2	0	0	---	0.00	30.284 
23:40	55.6	55.6	55.6	85	51.2	0	0	---	0.00	30.284 
23:45	55.4	55.4	55.4	86	51.3	0	0	---	0.00	30.286 
23:50	55.3	55.3	55.3	86	51.2	0	0	---	0.00	30.286 
23:55	55.1	55.1	55.1	86	51.0	0	0	---	0.00	30.286 

CoCoRaHS
IN-AL-39
A2 Web Hosting
Creative Commons License
GoDaddy
search engine by freefind advanced

loaded 2018-11-16 01:25:18 • last modified 2010-11-18 10:43:29
Privacy PolicyDisclaimer
• wx.awcolley.com is powered by PmWiki v.2002016 •
• all content (unless otherwise noted) © 2018 A W Colley